Time;durP1;ratioP1;P1;durP2;ratioP2;P2;SDS_P1;SDS_P2;PMS_P1;PMS_P2;Temp;Humidity;BMP_temperature;BMP_pressure;BME280_temperature;BME280_humidity;BME280_pressure;Samples;Min_cycle;Max_cycle;Signal;HPM_P1;HPM_P2
2022/06/30 00:01:58;;;;;;;5.22;2.03;;;15.00;99.90;;;;;;4973040;28;20030;-54
2022/06/30 00:04:24;;;;;;;5.57;2.20;;;14.90;99.90;;;;;;4973232;28;20023;-44
2022/06/30 00:06:52;;;;;;;6.65;2.28;;;14.90;99.90;;;;;;4973032;28;20359;-57
2022/06/30 00:09:18;;;;;;;4.47;2.45;;;14.90;99.90;;;;;;4973280;28;20023;-47
2022/06/30 00:11:44;;;;;;;7.75;2.20;;;14.90;99.90;;;;;;4973009;28;20513;-57
2022/06/30 00:14:10;;;;;;;5.70;2.10;;;14.80;99.90;;;;;;4973018;28;20029;-47
2022/06/30 00:16:35;;;;;;;4.25;2.00;;;14.80;99.90;;;;;;4973463;28;20050;-49
2022/06/30 00:19:01;;;;;;;8.00;2.13;;;14.80;99.90;;;;;;4972805;28;20018;-50
2022/06/30 00:21:27;;;;;;;6.18;1.90;;;14.70;99.90;;;;;;4973037;28;20039;-55
2022/06/30 00:23:52;;;;;;;4.88;1.92;;;14.70;99.90;;;;;;4972886;28;20382;-47
2022/06/30 00:26:18;;;;;;;4.47;1.40;;;14.60;99.90;;;;;;4973020;28;20473;-53
2022/06/30 00:28:44;;;;;;;3.53;1.48;;;14.60;99.90;;;;;;4973008;28;20803;-59
2022/06/30 00:31:09;;;;;;;6.88;2.03;;;14.50;99.90;;;;;;4972620;28;20526;-59
2022/06/30 00:33:35;;;;;;;4.03;1.50;;;14.40;99.90;;;;;;4972720;28;20031;-52
2022/06/30 00:36:00;;;;;;;6.53;1.90;;;14.50;99.90;;;;;;4972586;28;20034;-54
2022/06/30 00:38:26;;;;;;;5.25;1.70;;;14.50;99.90;;;;;;4972586;28;20580;-45
2022/06/30 00:40:52;;;;;;;4.85;1.63;;;14.40;99.90;;;;;;4971118;28;20039;-51
2022/06/30 00:43:18;;;;;;;5.03;1.70;;;14.50;99.90;;;;;;4972665;28;20030;-46
2022/06/30 00:45:46;;;;;;;2.83;1.55;;;14.40;99.90;;;;;;4972743;28;20619;-47
2022/06/30 00:48:13;;;;;;;7.30;1.80;;;14.40;99.90;;;;;;4972467;28;20367;-56
2022/06/30 00:50:39;;;;;;;3.50;1.27;;;14.50;99.90;;;;;;4972775;28;20062;-54
2022/06/30 00:53:07;;;;;;;3.85;1.50;;;14.40;99.90;;;;;;4971815;28;20037;-54
2022/06/30 00:55:33;;;;;;;5.68;1.60;;;14.40;99.90;;;;;;4972439;28;20496;-46
2022/06/30 00:58:01;;;;;;;6.32;1.70;;;14.40;99.90;;;;;;4972235;28;20046;-49
2022/06/30 01:00:30;;;;;;;6.03;1.55;;;14.40;99.90;;;;;;4972296;28;20410;-50
2022/06/30 01:02:56;;;;;;;5.20;1.55;;;14.30;99.90;;;;;;4972321;28;20030;-52
2022/06/30 01:05:24;;;;;;;3.60;1.45;;;14.30;99.90;;;;;;4972242;28;20031;-51
2022/06/30 01:07:52;;;;;;;3.22;1.58;;;14.20;99.90;;;;;;4972391;28;20035;-52
2022/06/30 01:13:03;;;;;;;4.15;1.50;;;14.20;99.90;;;;;;4972347;28;20033;-52
2022/06/30 01:15:29;;;;;;;5.88;1.60;;;14.20;99.90;;;;;;4972158;28;20393;-52
2022/06/30 01:17:54;;;;;;;2.83;1.55;;;14.20;99.90;;;;;;4972248;28;20041;-51
2022/06/30 01:20:28;;;;;;;5.13;1.70;;;14.20;99.90;;;;;;4954915;28;20474;-54
2022/06/30 01:22:58;;;;;;;5.93;1.67;;;14.20;99.90;;;;;;4972200;28;20027;-44
2022/06/30 01:25:25;;;;;;;5.28;1.70;;;14.20;99.90;;;;;;4972036;28;20050;-57
2022/06/30 01:27:51;;;;;;;5.75;1.92;;;14.10;99.90;;;;;;4972020;28;20458;-55
2022/06/30 01:30:17;;;;;;;6.32;1.92;;;14.10;99.90;;;;;;4972160;28;20023;-53
2022/06/30 01:32:43;;;;;;;4.88;2.25;;;14.00;99.90;;;;;;4971972;28;20078;-47
2022/06/30 01:35:09;;;;;;;5.57;2.08;;;14.00;99.90;;;;;;4971956;28;20101;-50
2022/06/30 01:37:48;;;;;;;4.65;2.10;;;14.00;99.90;;;;;;4971880;28;20027;-55
2022/06/30 01:40:15;;;;;;;5.63;1.92;;;13.90;99.90;;;;;;4971994;28;20390;-54
2022/06/30 01:42:41;;;;;;;4.93;1.77;;;14.00;99.90;;;;;;4971699;28;20035;-55
2022/06/30 01:45:07;;;;;;;3.28;1.88;;;14.00;99.90;;;;;;4971949;28;20102;-49
2022/06/30 01:47:34;;;;;;;5.78;1.80;;;13.90;99.90;;;;;;4971810;28;20570;-53
2022/06/30 01:50:00;;;;;;;3.42;1.80;;;13.90;99.90;;;;;;4971826;28;20530;-54
2022/06/30 01:52:26;;;;;;;7.30;2.90;;;13.90;99.90;;;;;;4971756;28;20106;-51
2022/06/30 01:54:51;;;;;;;5.85;1.95;;;13.90;99.90;;;;;;4971649;28;20084;-57
2022/06/30 01:57:17;;;;;;;6.80;1.90;;;13.90;99.90;;;;;;4972083;28;20023;-53
2022/06/30 01:59:42;;;;;;;3.92;2.05;;;13.90;99.90;;;;;;4971558;28;20117;-51
2022/06/30 02:02:08;;;;;;;4.07;1.73;;;13.90;99.90;;;;;;4953814;28;20171;-55
2022/06/30 02:04:50;;;;;;;5.05;2.13;;;13.90;99.90;;;;;;4975007;28;20524;-43
2022/06/30 02:07:20;;;;;;;3.92;1.88;;;13.90;99.90;;;;;;4975230;28;20046;-46
2022/06/30 02:09:47;;;;;;;3.08;1.75;;;13.90;99.90;;;;;;4974994;28;20029;-49
2022/06/30 02:14:58;;;;;;;3.33;1.65;;;13.90;99.90;;;;;;4975477;28;20041;-52
2022/06/30 02:17:23;;;;;;;3.00;1.40;;;13.90;99.90;;;;;;4975308;28;20114;-56
2022/06/30 02:19:49;;;;;;;5.55;1.55;;;13.90;99.90;;;;;;4975070;28;20034;-52
2022/06/30 02:22:15;;;;;;;4.68;1.60;;;13.90;99.90;;;;;;4975115;28;20247;-48
2022/06/30 02:24:40;;;;;;;3.42;1.40;;;14.00;99.90;;;;;;4974966;28;20042;-51
2022/06/30 02:27:06;;;;;;;4.13;1.63;;;14.00;99.90;;;;;;4975149;28;20474;-47
2022/06/30 02:29:32;;;;;;;2.35;1.20;;;14.00;99.90;;;;;;4975061;28;20023;-46
2022/06/30 02:31:57;;;;;;;3.47;1.58;;;14.00;99.90;;;;;;4974838;28;20517;-51
2022/06/30 02:34:23;;;;;;;4.43;1.65;;;14.00;99.90;;;;;;4974911;28;20031;-49
2022/06/30 02:36:49;;;;;;;3.67;1.40;;;14.00;99.90;;;;;;4974795;28;20042;-57
2022/06/30 02:39:15;;;;;;;3.60;1.70;;;14.00;99.90;;;;;;4974710;28;20027;-51
2022/06/30 02:41:40;;;;;;;4.47;1.60;;;14.00;99.90;;;;;;4974585;28;20042;-53
2022/06/30 02:44:06;;;;;;;5.20;1.77;;;14.10;99.90;;;;;;4974627;28;20054;-58
2022/06/30 02:46:32;;;;;;;4.03;1.95;;;14.10;99.90;;;;;;4974707;28;20415;-50
2022/06/30 02:48:57;;;;;;;4.60;2.00;;;14.10;99.90;;;;;;4974506;28;20422;-58
2022/06/30 02:51:23;;;;;;;3.65;1.80;;;14.10;99.90;;;;;;4974861;28;20035;-56
2022/06/30 02:53:49;;;;;;;2.92;1.65;;;14.10;99.90;;;;;;4974441;28;20386;-50
2022/06/30 02:56:14;;;;;;;5.20;2.33;;;14.10;99.90;;;;;;4974657;28;20035;-39
2022/06/30 02:58:40;;;;;;;3.20;1.90;;;14.10;99.90;;;;;;4974395;28;20426;-50
2022/06/30 03:01:05;;;;;;;10.25;1.92;;;14.10;99.90;;;;;;4974292;28;20101;-57
2022/06/30 03:03:31;;;;;;;4.72;2.13;;;14.10;99.90;;;;;;4974165;28;20414;-39
2022/06/30 03:05:57;;;;;;;3.47;1.92;;;14.10;99.90;;;;;;4974198;28;20084;-42
2022/06/30 03:08:23;;;;;;;6.38;2.28;;;14.00;99.90;;;;;;4974223;28;20026;-39
2022/06/30 03:10:48;;;;;;;4.82;2.35;;;14.10;99.90;;;;;;4973940;28;20130;-41
2022/06/30 03:13:14;;;;;;;5.28;2.75;;;14.00;99.90;;;;;;4974210;28;20029;-39
2022/06/30 03:15:39;;;;;;;6.65;2.85;;;14.10;99.90;;;;;;4973595;28;20023;-38
2022/06/30 03:18:05;;;;;;;5.18;2.67;;;14.10;99.90;;;;;;4973816;28;20027;-39
2022/06/30 03:20:31;;;;;;;6.50;3.22;;;14.10;99.90;;;;;;4974168;28;20113;-48
2022/06/30 03:22:56;;;;;;;6.13;3.10;;;14.00;99.90;;;;;;4973934;28;20347;-48
2022/06/30 03:25:22;;;;;;;4.68;3.15;;;14.00;99.90;;;;;;4973888;28;20122;-55
2022/06/30 03:27:48;;;;;;;5.97;3.15;;;13.90;99.90;;;;;;4973827;28;20047;-51
2022/06/30 03:30:13;;;;;;;5.75;3.20;;;13.80;99.90;;;;;;4973837;28;20022;-59
2022/06/30 03:32:39;;;;;;;7.47;4.10;;;13.70;99.90;;;;;;4973745;28;20042;-51
2022/06/30 03:35:05;;;;;;;7.88;4.25;;;13.50;99.90;;;;;;4973643;28;20023;-56
2022/06/30 03:37:31;;;;;;;9.93;4.18;;;13.50;99.90;;;;;;4973758;28;20027;-50
2022/06/30 03:39:57;;;;;;;7.40;3.55;;;13.40;99.90;;;;;;4974030;28;20022;-52
2022/06/30 03:42:23;;;;;;;5.93;3.70;;;13.30;99.90;;;;;;4973709;28;20042;-54
2022/06/30 03:44:50;;;;;;;6.13;3.47;;;13.40;99.90;;;;;;4973558;28;20023;-52
2022/06/30 03:47:16;;;;;;;7.25;3.13;;;13.40;99.90;;;;;;4973533;28;20494;-52
2022/06/30 03:49:41;;;;;;;7.03;4.25;;;13.50;99.90;;;;;;4973541;28;20027;-58
2022/06/30 03:52:07;;;;;;;5.28;2.70;;;13.50;99.90;;;;;;4973508;28;20023;-50
2022/06/30 03:54:33;;;;;;;6.10;2.95;;;13.50;99.90;;;;;;4973593;28;20039;-59
2022/06/30 03:56:59;;;;;;;6.03;2.90;;;13.50;99.90;;;;;;4973444;28;20114;-57
2022/06/30 03:59:24;;;;;;;3.92;2.28;;;13.60;99.90;;;;;;4973628;28;20106;-55
2022/06/30 04:01:50;;;;;;;5.88;2.70;;;13.60;99.90;;;;;;4973262;28;20450;-50
2022/06/30 04:04:16;;;;;;;5.18;3.17;;;13.60;99.90;;;;;;4956277;28;20026;-53
2022/06/30 04:06:42;;;;;;;5.15;3.00;;;13.70;99.90;;;;;;4973302;28;20158;-44
2022/06/30 04:09:08;;;;;;;6.30;3.13;;;13.70;99.90;;;;;;4973069;28;20018;-46
2022/06/30 04:11:34;;;;;;;6.80;3.60;;;13.70;99.90;;;;;;4973153;28;20390;-49
2022/06/30 04:13:59;;;;;;;6.68;3.25;;;13.80;99.90;;;;;;4973232;28;20062;-56
2022/06/30 04:16:25;;;;;;;5.35;3.25;;;13.80;99.90;;;;;;4972937;28;20108;-49
2022/06/30 04:18:51;;;;;;;7.32;4.38;;;13.90;99.90;;;;;;4973062;28;20033;-38
2022/06/30 04:21:16;;;;;;;6.90;3.30;;;13.90;99.90;;;;;;4972710;28;20050;-46
2022/06/30 04:23:44;;;;;;;9.70;4.03;;;13.90;99.90;;;;;;4972939;28;20075;-51
2022/06/30 04:26:09;;;;;;;7.68;4.05;;;13.90;99.90;;;;;;4972292;28;20525;-54
2022/06/30 04:28:36;;;;;;;7.90;4.47;;;13.90;99.90;;;;;;4972616;28;20022;-48
2022/06/30 04:33:46;;;;;;;8.20;4.28;;;13.90;99.90;;;;;;4961030;28;20161;-46
2022/06/30 04:36:12;;;;;;;7.10;4.50;;;13.90;99.90;;;;;;4972906;28;20110;-55
2022/06/30 04:38:37;;;;;;;6.30;3.88;;;13.90;99.90;;;;;;4972592;28;20343;-49
2022/06/30 04:43:47;;;;;;;5.32;3.70;;;13.90;99.90;;;;;;4959276;28;20061;-62
2022/06/30 04:46:13;;;;;;;7.80;4.55;;;13.90;99.90;;;;;;4972679;28;20109;-59
2022/06/30 04:48:38;;;;;;;6.90;3.97;;;14.20;99.90;;;;;;4972260;28;20046;-52
2022/06/30 04:51:04;;;;;;;5.25;3.53;;;14.00;99.90;;;;;;4971246;28;20137;-53
2022/06/30 04:53:30;;;;;;;8.43;3.67;;;14.00;99.90;;;;;;4972453;28;20031;-47
2022/06/30 04:55:56;;;;;;;6.57;3.30;;;14.00;99.90;;;;;;4972493;28;20033;-42
2022/06/30 04:58:21;;;;;;;4.95;2.97;;;14.00;99.90;;;;;;4972505;28;20038;-49
2022/06/30 05:00:47;;;;;;;4.75;3.08;;;14.00;99.90;;;;;;4972364;28;20099;-42
2022/06/30 05:03:13;;;;;;;8.50;3.22;;;14.00;99.90;;;;;;4972452;28;20414;-53
2022/06/30 05:05:39;;;;;;;6.95;3.10;;;14.00;99.90;;;;;;4972159;28;20110;-49
2022/06/30 05:08:05;;;;;;;4.32;2.80;;;13.90;99.90;;;;;;4972482;28;20027;-57
2022/06/30 05:10:30;;;;;;;5.25;3.03;;;13.90;99.90;;;;;;4972180;28;20038;-55
2022/06/30 05:12:56;;;;;;;4.88;2.90;;;13.90;99.90;;;;;;4972363;28;20027;-58
2022/06/30 05:15:22;;;;;;;5.70;2.60;;;13.90;99.90;;;;;;4972286;28;20489;-56
2022/06/30 05:17:47;;;;;;;5.82;3.03;;;13.80;99.90;;;;;;4972123;28;20034;-57
2022/06/30 05:20:13;;;;;;;5.32;2.65;;;13.70;99.90;;;;;;4972415;28;20030;-56
2022/06/30 05:22:39;;;;;;;5.95;2.88;;;13.60;99.90;;;;;;4972193;28;20031;-42
2022/06/30 05:27:49;;;;;;;4.47;2.83;;;13.60;99.90;;;;;;4972084;28;20406;-54
2022/06/30 05:30:16;;;;;;;4.95;2.83;;;13.60;99.90;;;;;;4972148;28;20023;-54
2022/06/30 05:32:45;;;;;;;5.82;2.72;;;13.70;99.90;;;;;;4972140;28;20027;-53
2022/06/30 05:35:12;;;;;;;;;;;13.70;99.90;;;;;;4954924;28;20018;-52
2022/06/30 05:37:38;;;;;;;5.40;2.17;;;13.80;99.90;;;;;;4972118;28;19906;-58
2022/06/30 05:40:05;;;;;;;7.65;2.35;;;13.80;99.90;;;;;;4975830;28;20106;-56
2022/06/30 05:42:31;;;;;;;4.88;2.33;;;13.80;99.90;;;;;;4975814;28;20115;-53
2022/06/30 05:44:56;;;;;;;6.05;2.38;;;13.90;99.90;;;;;;4975877;28;20031;-56
2022/06/30 05:47:22;;;;;;;5.22;2.40;;;13.90;99.90;;;;;;4975874;28;20479;-48
2022/06/30 05:49:48;;;;;;;4.43;2.10;;;13.90;99.90;;;;;;4975887;28;20023;-51
2022/06/30 05:52:14;;;;;;;5.18;2.33;;;13.90;99.90;;;;;;4975548;28;20482;-54
2022/06/30 05:54:39;;;;;;;7.30;3.35;;;14.00;99.90;;;;;;4975745;28;20479;-52
2022/06/30 05:57:05;;;;;;;5.72;2.40;;;14.00;99.90;;;;;;4975510;28;20015;-52
2022/06/30 05:59:32;;;;;;;4.82;1.77;;;14.10;99.90;;;;;;4975547;28;20062;-59
2022/06/30 06:01:59;;;;;;;6.97;2.38;;;14.10;99.90;;;;;;4975337;28;20039;-55
2022/06/30 06:04:25;;;;;;;3.80;1.63;;;14.10;99.90;;;;;;4975566;28;20116;-41
2022/06/30 06:06:51;;;;;;;6.03;2.00;;;14.20;99.90;;;;;;4975485;28;20035;-54
2022/06/30 06:09:16;;;;;;;5.30;2.10;;;14.30;99.90;;;;;;4975230;28;20375;-48
2022/06/30 06:11:42;;;;;;;3.97;1.70;;;14.40;99.90;;;;;;4975426;28;20023;-50
2022/06/30 06:14:08;;;;;;;7.00;2.25;;;14.50;99.90;;;;;;4975522;28;20081;-42
2022/06/30 06:16:34;;;;;;;5.28;2.03;;;14.60;99.90;;;;;;4975215;28;20506;-57
2022/06/30 06:19:00;;;;;;;4.47;1.73;;;14.70;99.90;;;;;;4975373;28;20031;-43
2022/06/30 06:21:26;;;;;;;3.72;1.60;;;14.80;99.90;;;;;;4973779;28;20035;-59
2022/06/30 06:23:53;;;;;;;5.97;1.95;;;14.80;99.90;;;;;;4975100;28;20093;-54
2022/06/30 06:26:19;;;;;;;5.00;1.92;;;14.80;99.90;;;;;;4975040;28;20556;-56
2022/06/30 06:31:29;;;;;;;7.15;2.08;;;14.90;99.90;;;;;;4974751;28;20077;-51
2022/06/30 06:33:55;;;;;;;7.38;2.67;;;14.90;99.90;;;;;;4974769;28;20442;-57
2022/06/30 06:36:21;;;;;;;4.60;2.17;;;15.00;99.90;;;;;;4974505;28;20062;-52
2022/06/30 06:38:46;;;;;;;6.57;2.33;;;15.10;99.90;;;;;;4974727;28;20390;-45
2022/06/30 06:41:12;;;;;;;6.22;1.80;;;15.30;99.90;;;;;;4974686;28;20043;-59
2022/06/30 06:43:38;;;;;;;4.88;1.60;;;15.50;99.90;;;;;;4974480;28;20042;-57
2022/06/30 06:46:04;;;;;;;3.95;1.50;;;15.60;99.90;;;;;;4974533;28;20375;-48
2022/06/30 06:48:29;;;;;;;4.70;1.70;;;15.70;99.90;;;;;;4974422;28;20035;-54
2022/06/30 06:50:55;;;;;;;4.10;1.50;;;15.90;99.90;;;;;;4973973;28;20023;-54
2022/06/30 06:53:21;;;;;;;4.38;1.40;;;16.30;99.90;;;;;;4974569;28;20154;-48
2022/06/30 06:55:46;;;;;;;4.93;1.55;;;16.80;99.90;;;;;;4957238;28;20235;-57
2022/06/30 06:58:12;;;;;;;6.43;1.67;;;17.20;99.90;;;;;;4974499;28;20031;-42
2022/06/30 07:00:38;;;;;;;9.32;1.60;;;17.40;99.90;;;;;;4974067;28;20019;-57
2022/06/30 07:03:03;;;;;;;7.70;1.90;;;17.60;99.90;;;;;;4974041;28;20026;-60
2022/06/30 07:05:29;;;;;;;4.68;1.95;;;17.80;99.90;;;;;;4974438;28;20438;-53
2022/06/30 07:08:01;;;;;;;3.45;1.50;;;18.30;99.90;;;;;;4974168;28;20094;-58
2022/06/30 07:10:28;;;;;;;6.28;1.42;;;18.50;98.70;;;;;;4973890;28;21402;-61
2022/06/30 07:12:54;;;;;;;5.97;1.30;;;18.40;97.50;;;;;;4973517;28;20477;-49
2022/06/30 07:15:21;;;;;;;6.05;1.10;;;18.10;98.70;;;;;;4973381;28;20042;-52
2022/06/30 07:17:50;;;;;;;3.83;1.00;;;18.00;98.70;;;;;;4973015;28;20070;-56
2022/06/30 07:20:16;;;;;;;5.28;1.40;;;18.00;99.70;;;;;;4974057;28;20030;-43
2022/06/30 07:22:41;;;;;;;7.15;3.28;;;17.90;99.90;;;;;;4973371;28;20043;-46
2022/06/30 07:25:08;;;;;;;12.43;8.80;;;17.80;99.70;;;;;;4973710;28;20045;-54
2022/06/30 07:27:34;;;;;;;11.82;7.72;;;17.50;97.10;;;;;;4973950;28;20085;-54
2022/06/30 07:30:00;;;;;;;13.77;8.63;;;17.20;99.40;;;;;;4973535;28;20023;-39
2022/06/30 07:32:25;;;;;;;14.02;7.93;;;17.10;99.90;;;;;;4973946;28;20092;-45
2022/06/30 07:34:51;;;;;;;12.07;6.90;;;16.80;99.90;;;;;;4973598;28;20072;-40
2022/06/30 07:37:17;;;;;;;13.30;6.80;;;16.80;99.90;;;;;;4973777;28;20051;-53
2022/06/30 07:39:43;;;;;;;7.05;4.00;;;16.60;99.90;;;;;;4973639;28;20165;-45
2022/06/30 07:42:08;;;;;;;5.95;3.22;;;16.40;99.80;;;;;;4973361;28;20042;-54
2022/06/30 07:44:34;;;;;;;6.47;2.35;;;16.20;99.90;;;;;;4972932;28;20022;-45
2022/06/30 07:47:00;;;;;;;5.78;2.80;;;16.00;99.90;;;;;;4972606;28;20031;-46
2022/06/30 07:49:27;;;;;;;5.25;2.13;;;16.00;99.90;;;;;;4973383;28;20157;-56
2022/06/30 07:51:53;;;;;;;3.45;1.08;;;16.00;99.90;;;;;;4973054;28;20673;-49
2022/06/30 07:54:19;;;;;;;3.60;1.10;;;16.10;99.90;;;;;;4973366;28;20037;-50
2022/06/30 07:56:45;;;;;;;4.57;1.25;;;16.30;99.90;;;;;;4973239;28;20031;-58
2022/06/30 07:59:11;;;;;;;4.18;1.20;;;16.60;99.90;;;;;;4972978;28;20030;-57
2022/06/30 08:01:37;;;;;;;5.07;1.30;;;16.90;99.90;;;;;;4973199;28;20097;-49
2022/06/30 08:04:03;;;;;;;3.70;0.90;;;17.10;99.90;;;;;;4973130;28;20367;-58
2022/06/30 08:06:29;;;;;;;5.85;1.02;;;17.10;99.90;;;;;;4973117;28;20022;-52
2022/06/30 08:08:54;;;;;;;4.55;1.20;;;17.10;99.90;;;;;;4973062;28;20046;-56
2022/06/30 08:11:20;;;;;;;5.28;1.15;;;17.10;99.90;;;;;;4972771;28;20031;-52
2022/06/30 08:13:47;;;;;;;3.80;1.02;;;17.00;99.90;;;;;;4972971;28;20043;-54
2022/06/30 08:16:14;;;;;;;3.28;1.00;;;16.80;99.00;;;;;;4972450;28;20660;-53
2022/06/30 08:18:42;;;;;;;6.32;1.60;;;16.70;99.90;;;;;;4972882;28;20058;-49
2022/06/30 08:21:09;;;;;;;7.45;1.30;;;16.60;99.90;;;;;;4968458;28;20462;-47
2022/06/30 08:23:35;;;;;;;3.55;1.60;;;16.50;99.90;;;;;;4971045;28;20042;-46
2022/06/30 08:26:00;;;;;;;4.32;1.10;;;16.50;99.90;;;;;;4972334;28;20057;-54
2022/06/30 08:28:27;;;;;;;5.57;1.20;;;16.50;99.90;;;;;;4972598;28;20030;-56
2022/06/30 08:30:52;;;;;;;4.57;1.30;;;16.70;99.90;;;;;;4972826;28;20076;-59
2022/06/30 08:33:18;;;;;;;4.63;1.30;;;17.00;99.90;;;;;;4972348;28;20109;-48
2022/06/30 08:35:44;;;;;;;5.50;1.10;;;17.40;99.90;;;;;;4974333;28;20027;-52
2022/06/30 08:38:09;;;;;;;3.95;1.02;;;17.80;99.90;;;;;;4972656;28;20022;-53
2022/06/30 08:43:24;;;;;;;5.75;1.25;;;17.70;98.70;;;;;;4972475;28;20054;-53
2022/06/30 08:45:51;;;;;;;6.40;1.58;;;17.50;98.80;;;;;;4972653;28;20030;-57
2022/06/30 08:48:17;;;;;;;4.25;1.30;;;17.50;99.00;;;;;;4954570;28;20039;-51
2022/06/30 08:50:43;;;;;;;3.33;1.05;;;17.40;99.90;;;;;;4972023;28;20023;-52
2022/06/30 08:53:10;;;;;;;7.70;1.17;;;17.40;99.90;;;;;;4971963;28;20398;-49
2022/06/30 08:55:37;;;;;;;6.20;1.20;;;17.40;99.40;;;;;;4971577;28;20023;-51
2022/06/30 08:58:08;;;;;;;4.72;1.20;;;17.30;99.70;;;;;;4944055;29;20451;-48
2022/06/30 09:00:36;;;;;;;4.55;1.15;;;17.20;99.90;;;;;;4970341;28;20014;-44
2022/06/30 09:03:03;;;;;;;4.60;1.08;;;17.10;99.20;;;;;;4972039;28;20035;-46
2022/06/30 09:05:29;;;;;;;4.75;1.05;;;17.00;98.30;;;;;;4953791;28;20515;-50
2022/06/30 09:07:55;;;;;;;5.63;1.30;;;16.90;99.60;;;;;;4970188;28;20035;-45
2022/06/30 09:10:22;;;;;;;5.70;1.15;;;16.80;98.80;;;;;;4971824;28;20025;-43
2022/06/30 09:12:59;;;;;;;3.90;1.00;;;16.80;99.90;;;;;;4971386;28;20098;-43
2022/06/30 09:15:27;;;;;;;2.97;1.00;;;17.00;99.90;;;;;;4971910;28;20034;-56
2022/06/30 09:17:53;;;;;;;4.20;0.98;;;16.90;99.90;;;;;;4971901;28;20035;-45
2022/06/30 09:20:31;;;;;;;4.22;0.90;;;17.10;99.90;;;;;;4971424;28;20474;-59
2022/06/30 09:22:56;;;;;;;6.10;1.05;;;17.30;98.90;;;;;;4971237;28;20391;-53
2022/06/30 09:25:30;;;;;;;3.42;0.88;;;17.50;99.40;;;;;;4971386;28;20046;-48
2022/06/30 09:27:56;;;;;;;5.95;1.02;;;17.80;98.40;;;;;;4971218;28;20038;-52
2022/06/30 09:30:24;;;;;;;5.80;1.00;;;17.80;98.40;;;;;;4971539;28;20088;-47
2022/06/30 09:32:57;;;;;;;4.53;0.85;;;18.00;97.20;;;;;;4972035;28;20386;-52
2022/06/30 09:35:28;;;;;;;2.85;1.00;;;18.00;97.10;;;;;;4971486;28;20454;-43
2022/06/30 09:38:07;;;;;;;3.17;0.70;;;17.90;97.00;;;;;;4972000;28;20034;-45
2022/06/30 09:41:00;;;;;;;4.45;0.93;;;17.90;95.50;;;;;;4972009;28;20107;-46
2022/06/30 09:43:32;;;;;;;3.03;0.80;;;17.70;97.90;;;;;;4971398;28;20031;-53
2022/06/30 09:45:58;;;;;;;1.92;0.70;;;17.70;97.00;;;;;;4971771;28;20030;-60
2022/06/30 09:48:27;;;;;;;2.80;0.90;;;17.70;98.40;;;;;;4972005;28;20085;-58
2022/06/30 09:51:01;;;;;;;3.95;1.05;;;17.70;98.40;;;;;;4971930;28;20027;-55
2022/06/30 09:53:27;;;;;;;5.07;1.00;;;17.70;96.40;;;;;;4954212;28;20035;-57
2022/06/30 09:55:54;;;;;;;3.50;0.88;;;17.70;97.60;;;;;;4971555;28;20081;-56
2022/06/30 09:58:28;;;;;;;6.30;0.93;;;17.60;97.60;;;;;;4971932;28;20382;-57
2022/06/30 10:00:54;;;;;;;2.80;0.63;;;17.50;97.20;;;;;;4971433;28;20033;-52
2022/06/30 10:03:20;;;;;;;2.58;0.63;;;17.30;94.80;;;;;;4970977;28;20019;-54
2022/06/30 10:05:51;;;;;;;3.25;0.68;;;17.30;97.00;;;;;;4971115;28;20034;-46
2022/06/30 10:08:18;;;;;;;4.90;0.82;;;17.20;96.10;;;;;;4971658;28;20042;-47
2022/06/30 10:10:45;;;;;;;4.60;1.10;;;17.00;95.80;;;;;;4971496;28;20027;-54
2022/06/30 10:13:16;;;;;;;4.60;0.80;;;17.00;97.00;;;;;;4954748;28;20030;-57
2022/06/30 10:15:51;;;;;;;1.83;0.55;;;17.00;96.70;;;;;;4971531;28;20027;-47
2022/06/30 10:18:17;;;;;;;4.18;1.10;;;17.00;97.20;;;;;;4958240;28;20042;-44
2022/06/30 10:20:45;;;;;;;3.72;0.85;;;17.00;96.70;;;;;;4971355;28;20030;-50
2022/06/30 10:23:13;;;;;;;5.70;0.88;;;17.00;97.80;;;;;;4971351;28;20113;-55
2022/06/30 10:25:40;;;;;;;2.25;0.70;;;17.00;96.70;;;;;;4972815;28;20194;-55
2022/06/30 10:28:06;;;;;;;3.15;0.77;;;17.10;97.80;;;;;;4974735;28;20066;-60
2022/06/30 10:30:51;;;;;;;5.10;0.95;;;17.00;98.10;;;;;;4975071;28;20121;-52
2022/06/30 10:33:46;;;;;;;2.80;0.63;;;17.10;96.80;;;;;;4972840;28;20035;-57
2022/06/30 10:36:25;;;;;;;5.10;0.80;;;17.20;96.50;;;;;;4974941;28;20022;-57
2022/06/30 10:39:24;;;;;;;2.90;0.77;;;17.20;95.60;;;;;;4974960;28;20035;-45
2022/06/30 10:41:50;;;;;;;3.85;0.73;;;17.20;96.60;;;;;;4972640;28;20110;-39
2022/06/30 10:44:27;;;;;;;1.70;0.68;;;17.20;96.50;;;;;;4973245;28;20031;-43
2022/06/30 10:46:55;;;;;;;5.05;0.95;;;17.30;96.30;;;;;;4972242;28;20367;-41
2022/06/30 10:49:22;;;;;;;2.55;0.57;;;17.40;96.70;;;;;;4974730;28;20478;-46
2022/06/30 10:51:48;;;;;;;4.03;0.77;;;17.70;97.30;;;;;;4974441;28;20118;-41
2022/06/30 10:54:43;;;;;;;3.72;0.88;;;17.60;93.80;;;;;;4974653;28;20438;-49
2022/06/30 10:57:09;;;;;;;2.83;0.77;;;17.30;94.50;;;;;;4970250;28;20114;-42
2022/06/30 10:59:42;;;;;;;1.80;0.65;;;17.00;95.30;;;;;;4973276;28;20138;-41
2022/06/30 11:02:11;;;;;;;4.95;1.13;;;16.90;95.30;;;;;;4973442;28;20039;-39
2022/06/30 11:04:44;;;;;;;5.10;0.70;;;16.90;96.70;;;;;;4973728;28;20023;-40
2022/06/30 11:07:12;;;;;;;3.88;0.90;;;16.90;94.90;;;;;;4973639;28;20035;-40
2022/06/30 11:09:43;;;;;;;5.05;0.75;;;16.70;95.10;;;;;;4973683;28;20019;-41
2022/06/30 11:12:13;;;;;;;3.75;0.90;;;16.70;97.00;;;;;;4973786;28;20109;-37
2022/06/30 11:14:59;;;;;;;2.58;0.70;;;16.80;96.70;;;;;;4973573;28;20122;-49
2022/06/30 11:17:28;;;;;;;3.95;0.88;;;16.90;96.10;;;;;;4973104;28;20390;-53
2022/06/30 11:20:03;;;;;;;5.25;0.93;;;17.10;99.50;;;;;;4970156;28;20046;-46
2022/06/30 11:22:30;;;;;;;3.08;0.70;;;17.40;98.10;;;;;;4972998;28;20042;-53
2022/06/30 11:28:12;;;;;;;4.22;0.70;;;18.40;98.10;;;;;;4974086;28;20405;-51
2022/06/30 11:30:38;;;;;;;5.20;1.17;;;19.10;95.90;;;;;;4973831;28;20371;-58
2022/06/30 11:33:04;;;;;;;5.07;0.80;;;19.50;91.10;;;;;;4973918;28;20029;-58
2022/06/30 11:35:30;;;;;;;4.20;1.10;;;19.20;90.80;;;;;;4973253;28;20077;-52
2022/06/30 11:37:56;;;;;;;5.57;1.20;;;18.90;90.70;;;;;;4973830;28;20027;-55
2022/06/30 11:40:22;;;;;;;5.30;0.82;;;18.80;92.40;;;;;;4973500;28;20371;-54
2022/06/30 11:42:50;;;;;;;6.30;1.00;;;18.60;92.00;;;;;;4973706;28;20039;-54
2022/06/30 11:45:23;;;;;;;2.83;0.90;;;18.50;92.40;;;;;;4973493;28;20386;-48
2022/06/30 11:48:03;;;;;;;4.32;0.88;;;18.30;91.50;;;;;;4972671;28;20597;-52
2022/06/30 11:50:29;;;;;;;4.45;1.10;;;18.20;92.50;;;;;;4970620;28;20110;-54
2022/06/30 11:53:00;;;;;;;6.18;1.10;;;18.20;92.60;;;;;;4972001;28;20566;-45
2022/06/30 11:55:27;;;;;;;2.70;0.80;;;18.10;92.80;;;;;;4972066;28;20073;-43
2022/06/30 11:57:53;;;;;;;5.95;1.00;;;17.90;91.10;;;;;;4971704;28;20038;-48
2022/06/30 12:00:27;;;;;;;5.60;1.38;;;17.80;92.80;;;;;;4972756;28;20027;-48
2022/06/30 12:02:55;;;;;;;3.72;0.93;;;17.90;92.70;;;;;;4970740;28;20081;-47
2022/06/30 12:05:23;;;;;;;4.85;0.90;;;18.10;93.80;;;;;;4972900;28;20081;-48
2022/06/30 12:07:49;;;;;;;5.53;1.02;;;18.10;90.60;;;;;;4970234;28;20027;-57
2022/06/30 12:10:24;;;;;;;1.90;0.80;;;18.10;92.70;;;;;;4972713;28;20068;-54
2022/06/30 12:12:50;;;;;;;3.63;0.90;;;18.00;92.90;;;;;;4972651;28;20019;-45
2022/06/30 12:15:18;;;;;;;4.50;1.00;;;17.90;93.80;;;;;;4972703;28;20043;-50
2022/06/30 12:17:47;;;;;;;3.72;0.90;;;17.70;93.10;;;;;;4972331;28;20074;-57
2022/06/30 12:20:14;;;;;;;5.90;0.90;;;17.70;94.10;;;;;;4972811;28;20033;-52
2022/06/30 12:22:42;;;;;;;7.35;0.98;;;17.70;92.40;;;;;;4972273;28;20039;-51
2022/06/30 12:25:09;;;;;;;4.10;0.80;;;17.60;94.20;;;;;;4972314;28;20043;-52
2022/06/30 12:27:56;;;;;;;2.95;0.70;;;17.70;93.10;;;;;;4972472;28;20062;-52
2022/06/30 12:30:31;;;;;;;2.88;0.98;;;17.80;91.90;;;;;;4971926;28;20073;-43
2022/06/30 12:32:59;;;;;;;5.00;0.93;;;17.70;92.90;;;;;;4972445;28;20054;-44
2022/06/30 12:35:30;;;;;;;5.85;1.45;;;17.70;93.30;;;;;;4972283;28;20030;-47
2022/06/30 12:37:56;;;;;;;3.15;0.80;;;17.80;92.00;;;;;;4972409;28;20041;-47
2022/06/30 12:40:26;;;;;;;4.38;0.90;;;17.70;92.90;;;;;;4972129;28;20019;-48
2022/06/30 12:42:59;;;;;;;5.95;1.45;;;17.70;91.70;;;;;;4971996;28;20416;-45
2022/06/30 12:45:55;;;;;;;8.25;1.20;;;17.80;91.80;;;;;;4972096;28;20045;-47
2022/06/30 12:48:53;;;;;;;4.70;1.13;;;17.70;92.00;;;;;;4971151;28;20027;-48
2022/06/30 12:51:28;;;;;;;4.68;1.15;;;17.70;92.40;;;;;;4970959;28;20023;-41
2022/06/30 12:54:06;;;;;;;4.07;0.90;;;17.60;93.50;;;;;;4971845;28;20121;-44
2022/06/30 12:56:32;;;;;;;4.78;1.05;;;17.60;93.60;;;;;;4972030;28;20031;-48
2022/06/30 12:59:05;;;;;;;3.42;0.70;;;17.70;92.80;;;;;;4968626;28;20116;-51
2022/06/30 13:01:39;;;;;;;4.57;0.98;;;17.50;93.10;;;;;;4971161;28;20038;-53
2022/06/30 13:04:07;;;;;;;4.82;0.90;;;17.40;94.50;;;;;;4972152;28;20110;-51
2022/06/30 13:06:35;;;;;;;7.25;1.38;;;17.50;96.10;;;;;;4972456;28;20136;-58
2022/06/30 13:09:05;;;;;;;6.18;0.90;;;17.90;94.40;;;;;;4971898;28;20026;-44
2022/06/30 13:11:31;;;;;;;;;;;18.10;93.00;;;;;;4959555;28;20054;-44
2022/06/30 13:13:57;;;;;;;7.80;1.00;;;18.10;91.40;;;;;;4971546;28;19960;-43